createdAt,value
2022-09-01T00:01:43.662Z,14.77
2022-09-01T00:04:13.851Z,14.76
2022-09-01T00:06:41.041Z,14.65
2022-09-01T00:09:12.457Z,14.59
2022-09-01T00:11:42.411Z,14.53
2022-09-01T00:14:29.335Z,14.48
2022-09-01T00:17:03.177Z,14.17
2022-09-01T00:19:30.541Z,14.44
2022-09-01T00:21:57.926Z,14.38
2022-09-01T00:24:26.239Z,14.26
2022-09-01T00:26:55.254Z,14.25
2022-09-01T00:29:24.253Z,14.00
2022-09-01T00:31:52.000Z,14.42
2022-09-01T00:34:19.785Z,14.32
2022-09-01T00:36:48.156Z,14.20
2022-09-01T00:39:15.441Z,13.97
2022-09-01T00:41:44.864Z,14.06
2022-09-01T00:44:16.482Z,14.06
2022-09-01T00:46:55.524Z,14.00
2022-09-01T00:49:35.261Z,13.91
2022-09-01T00:52:10.973Z,13.90
2022-09-01T00:54:43.581Z,13.93
2022-09-01T00:57:12.724Z,13.90
2022-09-01T00:59:56.520Z,13.86
2022-09-01T01:02:23.850Z,13.81
2022-09-01T01:04:52.640Z,13.69
2022-09-01T01:07:22.611Z,13.81
2022-09-01T01:09:50.629Z,13.55
2022-09-01T01:12:18.520Z,13.75
2022-09-01T01:14:50.300Z,13.64
2022-09-01T01:17:20.887Z,13.54
2022-09-01T01:20:08.912Z,13.64
2022-09-01T01:23:02.919Z,13.52
2022-09-01T01:25:35.713Z,13.68
2022-09-01T01:28:14.144Z,13.64
2022-09-01T01:30:51.022Z,13.58
2022-09-01T01:33:21.795Z,13.49
2022-09-01T01:35:53.301Z,13.54
2022-09-01T01:38:22.684Z,13.53
2022-09-01T01:40:51.800Z,13.32
2022-09-01T01:43:23.068Z,13.48
2022-09-01T01:45:53.969Z,13.47
2022-09-01T01:48:25.449Z,13.34
2022-09-01T01:50:54.849Z,13.29
2022-09-01T01:53:23.150Z,13.20
2022-09-01T01:55:51.513Z,13.21
2022-09-01T01:58:21.136Z,13.24
2022-09-01T02:00:50.547Z,13.18
2022-09-01T02:03:21.949Z,13.09
2022-09-01T02:05:53.260Z,13.08
2022-09-01T02:08:22.835Z,12.95
2022-09-01T02:10:54.106Z,13.09
2022-09-01T02:13:31.125Z,13.05
2022-09-01T02:16:07.602Z,13.01
2022-09-01T02:18:38.682Z,13.03
2022-09-01T02:21:11.220Z,13.05
2022-09-01T02:23:41.302Z,13.07
2022-09-01T02:26:16.599Z,13.06
2022-09-01T02:28:54.351Z,12.86
2022-09-01T02:31:27.994Z,12.92
2022-09-01T02:33:56.004Z,12.56
2022-09-01T02:36:25.487Z,12.76
2022-09-01T02:38:56.506Z,12.76
2022-09-01T02:41:25.269Z,12.65
2022-09-01T02:43:52.998Z,12.70
2022-09-01T02:46:24.268Z,12.73
2022-09-01T02:48:52.179Z,12.67
2022-09-01T02:51:22.368Z,12.70
2022-09-01T02:53:52.129Z,12.68
2022-09-01T02:56:23.998Z,12.62
2022-09-01T02:58:53.917Z,12.26
2022-09-01T03:01:27.085Z,12.60
2022-09-01T03:03:57.974Z,12.57
2022-09-01T03:06:26.531Z,12.62
2022-09-01T03:08:56.594Z,12.57
2022-09-01T03:11:24.660Z,12.53
2022-09-01T03:13:53.094Z,12.19
2022-09-01T03:16:20.386Z,12.37
2022-09-01T03:18:47.515Z,12.43
2022-09-01T03:21:17.042Z,12.50
2022-09-01T03:23:46.626Z,12.21
2022-09-01T03:26:14.943Z,12.44
2022-09-01T03:28:42.217Z,12.42
2022-09-01T03:31:09.434Z,12.36
2022-09-01T03:33:37.474Z,12.28
2022-09-01T03:36:14.285Z,12.26
2022-09-01T03:38:43.827Z,12.45
2022-09-01T03:41:13.037Z,12.45
2022-09-01T03:43:46.967Z,12.38
2022-09-01T03:46:20.133Z,12.36
2022-09-01T03:48:55.216Z,12.37
2022-09-01T03:51:25.157Z,12.28
2022-09-01T03:53:54.947Z,12.17
2022-09-01T03:56:25.500Z,11.95
2022-09-01T03:58:57.304Z,12.05
2022-09-01T04:01:27.204Z,12.06
2022-09-01T04:03:54.859Z,11.87
2022-09-01T04:06:25.974Z,11.93
2022-09-01T04:09:02.573Z,11.92
2022-09-01T04:11:32.244Z,11.84
2022-09-01T04:14:00.622Z,11.82
2022-09-01T04:16:50.696Z,11.90
2022-09-01T04:19:25.499Z,11.77
2022-09-01T04:22:03.202Z,11.83
2022-09-01T04:24:34.866Z,11.86
2022-09-01T04:27:03.275Z,11.62
2022-09-01T04:29:31.643Z,11.50
2022-09-01T04:32:02.581Z,11.87
2022-09-01T04:34:42.765Z,11.78
2022-09-01T04:37:23.570Z,11.68
2022-09-01T04:39:57.154Z,11.72
2022-09-01T04:42:28.956Z,11.77
2022-09-01T04:44:57.392Z,11.69
2022-09-01T04:47:35.901Z,11.69
2022-09-01T04:50:13.631Z,11.72
2022-09-01T04:52:45.699Z,11.49
2022-09-01T04:55:28.030Z,11.72
2022-09-01T04:57:57.575Z,11.68
2022-09-01T05:00:27.145Z,11.70
2022-09-01T05:03:03.031Z,11.47
2022-09-01T05:05:42.474Z,11.71
2022-09-01T05:08:23.036Z,11.74
2022-09-01T05:10:55.470Z,11.79
2022-09-01T05:13:35.667Z,11.66
2022-09-01T05:16:06.489Z,11.76
2022-09-01T05:18:33.983Z,11.84
2022-09-01T05:21:09.849Z,11.83
2022-09-01T05:23:40.765Z,11.82
2022-09-01T05:26:16.834Z,11.86
2022-09-01T05:28:45.622Z,11.88
2022-09-01T05:31:12.970Z,12.03
2022-09-01T05:33:45.904Z,11.78
2022-09-01T05:36:15.550Z,12.19
2022-09-01T05:38:43.193Z,12.31
2022-09-01T05:41:16.743Z,12.37
2022-09-01T05:43:46.386Z,12.45
2022-09-01T05:46:16.998Z,12.44
2022-09-01T05:48:46.090Z,12.60
2022-09-01T05:51:42.758Z,12.57
2022-09-01T05:54:09.218Z,12.66
2022-09-01T05:56:43.580Z,12.75
2022-09-01T05:59:23.016Z,12.76
2022-09-01T06:01:53.189Z,12.77
2022-09-01T06:04:22.661Z,13.09
2022-09-01T06:07:07.764Z,13.20
2022-09-01T06:09:42.130Z,13.34
2022-09-01T06:12:23.862Z,13.46
2022-09-01T06:14:53.771Z,13.23
2022-09-01T06:17:24.749Z,13.53
2022-09-01T06:19:55.637Z,13.63
2022-09-01T06:22:25.325Z,13.86
2022-09-01T06:24:57.888Z,13.96
2022-09-01T06:27:29.286Z,14.06
2022-09-01T06:29:57.514Z,13.97
2022-09-01T06:32:25.975Z,14.44
2022-09-01T06:34:54.577Z,14.50
2022-09-01T06:37:22.740Z,14.67
2022-09-01T06:39:53.523Z,14.80
2022-09-01T06:42:23.134Z,14.93
2022-09-01T06:44:59.732Z,15.03
2022-09-01T06:47:28.536Z,15.22
2022-09-01T06:49:58.862Z,15.10
2022-09-01T06:52:27.300Z,15.11
2022-09-01T06:54:55.862Z,15.39
2022-09-01T07:00:20.771Z,15.78
2022-09-01T07:02:53.491Z,15.90
2022-09-01T07:14:26.543Z,16.90
2022-09-01T07:17:22.578Z,16.93
2022-09-01T07:19:55.865Z,17.15
2022-09-01T07:23:03.477Z,17.29
2022-09-01T07:25:13.071Z,17.41
2022-09-01T07:28:00.931Z,17.36
2022-09-01T07:30:29.052Z,17.84
2022-09-01T07:32:56.162Z,17.91
2022-09-01T07:35:25.220Z,18.11
2022-09-01T07:43:51.315Z,18.51
2022-09-01T07:46:37.436Z,18.74
2022-09-01T07:51:56.836Z,19.06
2022-09-01T07:54:27.488Z,19.16
2022-09-01T07:56:55.558Z,19.33
2022-09-01T07:59:23.730Z,19.43
2022-09-01T08:01:57.318Z,19.49
2022-09-01T08:04:26.529Z,19.47
2022-09-01T08:06:55.804Z,19.50
2022-09-01T08:09:35.141Z,19.57
2022-09-01T08:12:05.937Z,19.63
2022-09-01T08:14:38.094Z,19.74
2022-09-01T08:19:54.161Z,19.95
2022-09-01T08:22:38.106Z,19.95
2022-09-01T08:25:16.565Z,20.08
2022-09-01T08:27:43.910Z,20.09
2022-09-01T08:30:13.087Z,20.17
2022-09-01T08:32:42.169Z,20.33
2022-09-01T08:35:11.472Z,20.40
2022-09-01T08:37:39.876Z,20.50
2022-09-01T08:40:08.768Z,20.47
2022-09-01T08:42:35.786Z,20.62
2022-09-01T08:45:28.229Z,20.42
2022-09-01T08:48:36.781Z,20.58
2022-09-01T08:50:54.262Z,20.48
2022-09-01T08:53:45.799Z,20.45
2022-09-01T08:56:14.023Z,20.33
2022-09-01T08:58:41.522Z,20.65
2022-09-01T09:01:45.244Z,20.90
2022-09-01T09:04:49.403Z,20.78
2022-09-01T09:07:36.621Z,20.75
2022-09-01T09:10:12.071Z,20.73
2022-09-01T09:12:51.366Z,20.68
2022-09-01T09:15:32.915Z,20.76
2022-09-01T09:18:39.171Z,20.99
2022-09-01T09:21:16.387Z,21.26
2022-09-01T09:23:47.914Z,21.24
2022-09-01T09:26:21.901Z,21.20
2022-09-01T09:28:49.973Z,21.26
2022-09-01T09:31:45.696Z,21.28
2022-09-01T09:34:32.594Z,21.44
2022-09-01T09:37:24.706Z,21.45
2022-09-01T09:40:05.572Z,21.56
2022-09-01T09:42:36.382Z,21.68
2022-09-01T09:45:04.377Z,21.65
2022-09-01T09:47:44.630Z,21.68
2022-09-01T09:50:29.484Z,21.65
2022-09-01T09:53:28.235Z,21.35
2022-09-01T09:55:57.963Z,21.90
2022-09-01T09:58:35.146Z,21.89
2022-09-01T10:01:17.526Z,22.02
2022-09-01T10:03:49.320Z,22.01
2022-09-01T10:06:41.956Z,21.85
2022-09-01T10:09:15.962Z,21.99
2022-09-01T10:11:47.074Z,21.95
2022-09-01T10:14:51.695Z,22.29
2022-09-01T10:17:13.238Z,22.19
2022-09-01T10:19:50.916Z,22.32
2022-09-01T10:22:18.734Z,22.44
2022-09-01T10:24:46.426Z,22.63
2022-09-01T10:27:31.559Z,22.84
2022-09-01T10:30:12.402Z,23.01
2022-09-01T10:33:07.990Z,23.25
2022-09-01T10:35:47.004Z,23.30
2022-09-01T10:38:24.026Z,23.18
2022-09-01T10:41:07.901Z,23.22
2022-09-01T10:43:48.875Z,23.42
2022-09-01T10:46:27.582Z,23.42
2022-09-01T10:49:17.976Z,23.75
2022-09-01T10:51:56.704Z,23.92
2022-09-01T10:54:50.291Z,23.69
2022-09-01T10:57:27.702Z,23.84
2022-09-01T10:59:58.097Z,23.74
2022-09-01T11:02:28.353Z,23.63
2022-09-01T11:04:55.794Z,23.47
2022-09-01T11:07:50.570Z,23.43
2022-09-01T11:10:32.958Z,23.44
2022-09-01T11:13:37.266Z,23.56
2022-09-01T11:19:31.903Z,23.78
2022-09-01T11:22:41.555Z,24.16
2022-09-01T11:25:38.757Z,24.52
2022-09-01T11:28:15.268Z,23.98
2022-09-01T11:30:53.397Z,24.70
2022-09-01T11:33:42.914Z,25.14
2022-09-01T11:36:36.310Z,25.25
2022-09-01T11:39:20.696Z,24.58
2022-09-01T11:42:04.276Z,24.60
2022-09-01T11:44:37.405Z,24.74
2022-09-01T11:47:16.676Z,24.30
2022-09-01T11:49:49.278Z,24.28
2022-09-01T11:52:17.076Z,24.13
2022-09-01T11:54:46.633Z,23.92
2022-09-01T11:57:47.868Z,24.01
2022-09-01T12:00:26.997Z,24.42
2022-09-01T12:02:55.039Z,24.47
2022-09-01T12:05:30.011Z,24.06
2022-09-01T12:07:58.174Z,23.92
2022-09-01T12:10:31.526Z,23.75
2022-09-01T12:13:04.301Z,24.01
2022-09-01T12:15:31.863Z,24.16
2022-09-01T12:18:13.693Z,24.31
2022-09-01T12:20:41.194Z,24.72
2022-09-01T12:23:26.272Z,25.05
2022-09-01T12:25:56.171Z,25.15
2022-09-01T12:28:25.193Z,25.27
2022-09-01T12:30:53.208Z,25.38
2022-09-01T12:33:23.366Z,25.45
2022-09-01T12:35:51.979Z,25.35
2022-09-01T12:38:21.209Z,25.36
2022-09-01T12:40:56.899Z,25.62
2022-09-01T12:43:42.488Z,25.77
2022-09-01T12:46:10.840Z,25.93
2022-09-01T12:48:40.379Z,26.09
2022-09-01T12:51:24.512Z,26.16
2022-09-01T12:53:58.438Z,26.29
2022-09-01T12:56:38.922Z,26.47
2022-09-01T12:59:17.239Z,26.24
2022-09-01T13:01:46.565Z,26.22
2022-09-01T13:04:14.284Z,26.05
2022-09-01T13:06:42.044Z,25.88
2022-09-01T13:09:10.256Z,26.25
2022-09-01T13:14:25.584Z,25.84
2022-09-01T13:16:52.625Z,25.52
2022-09-01T13:19:27.337Z,25.16
2022-09-01T13:21:55.903Z,24.95
2022-09-01T13:24:26.553Z,24.58
2022-09-01T13:29:45.562Z,24.12
2022-09-01T13:32:21.287Z,24.10
2022-09-01T13:34:52.030Z,24.09
2022-09-01T13:37:21.662Z,24.38
2022-09-01T13:39:49.804Z,24.58
2022-09-01T13:42:17.518Z,24.75
2022-09-01T13:44:46.293Z,24.95
2022-09-01T13:47:30.842Z,25.23
2022-09-01T13:50:09.128Z,25.41
2022-09-01T13:52:43.175Z,25.30
2022-09-01T13:55:13.257Z,25.30
2022-09-01T13:57:40.619Z,25.61
2022-09-01T14:00:11.728Z,25.57
2022-09-01T14:02:41.009Z,25.48
2022-09-01T14:05:09.175Z,25.57
2022-09-01T14:07:37.069Z,25.30
2022-09-01T14:10:04.963Z,24.74
2022-09-01T14:12:32.278Z,24.92
2022-09-01T14:15:17.232Z,24.76
2022-09-01T14:17:47.322Z,24.63
2022-09-01T14:20:18.473Z,24.64
2022-09-01T14:22:46.646Z,24.43
2022-09-01T14:25:14.316Z,24.71
2022-09-01T14:27:42.761Z,24.60
2022-09-01T14:30:19.374Z,24.84
2022-09-01T14:32:47.370Z,24.71
2022-09-01T14:35:16.366Z,24.83
2022-09-01T14:37:44.863Z,24.75
2022-09-01T14:40:18.143Z,24.87
2022-09-01T14:42:49.035Z,24.89
2022-09-01T14:45:18.881Z,24.96
2022-09-01T14:47:48.582Z,25.01
2022-09-01T14:50:20.041Z,25.00
2022-09-01T14:52:53.053Z,25.05
2022-09-01T14:55:22.714Z,25.15
2022-09-01T14:57:50.551Z,25.25
2022-09-01T15:00:18.507Z,25.25
2022-09-01T15:02:45.822Z,24.90
2022-09-01T15:05:13.708Z,24.92
2022-09-01T15:07:42.427Z,24.98
2022-09-01T15:10:11.581Z,25.04
2022-09-01T15:12:43.180Z,24.92
2022-09-01T15:15:10.328Z,24.73
2022-09-01T15:17:37.446Z,24.56
2022-09-01T15:20:24.386Z,24.77
2022-09-01T15:22:51.569Z,24.70
2022-09-01T15:25:18.822Z,24.54
2022-09-01T15:27:46.668Z,24.44
2022-09-01T15:30:17.830Z,24.33
2022-09-01T15:32:47.378Z,24.45
2022-09-01T15:35:15.228Z,24.66
2022-09-01T15:37:42.768Z,25.06
2022-09-01T15:40:10.265Z,25.02
2022-09-01T15:42:37.843Z,25.25
2022-09-01T15:45:08.843Z,25.78
2022-09-01T15:47:36.131Z,26.07
2022-09-01T15:50:06.245Z,26.44
2022-09-01T15:52:34.701Z,26.39
2022-09-01T15:55:03.416Z,27.70
2022-09-01T15:57:30.431Z,27.60
2022-09-01T15:59:57.951Z,26.57
2022-09-01T16:02:27.160Z,25.58
2022-09-01T16:04:56.657Z,25.03
2022-09-01T16:07:23.814Z,24.75
2022-09-01T16:09:57.837Z,24.73
2022-09-01T16:12:26.500Z,25.87
2022-09-01T16:14:55.078Z,26.40
2022-09-01T16:18:03.183Z,25.83
2022-09-01T16:20:38.857Z,26.01
2022-09-01T16:23:14.903Z,25.71
2022-09-01T16:25:45.427Z,25.62
2022-09-01T16:28:35.649Z,27.67
2022-09-01T16:31:25.569Z,28.09
2022-09-01T16:33:56.109Z,26.69
2022-09-01T16:36:26.230Z,27.58
2022-09-01T16:38:58.016Z,28.92
2022-09-01T16:41:44.533Z,30.48
2022-09-01T16:44:26.963Z,30.66
2022-09-01T16:47:38.979Z,30.34
2022-09-01T16:50:24.641Z,27.70
2022-09-01T16:53:30.099Z,26.25
2022-09-01T16:56:22.375Z,25.50
2022-09-01T16:59:22.638Z,24.60
2022-09-01T17:02:04.921Z,24.33
2022-09-01T17:04:40.669Z,25.37
2022-09-01T17:07:20.142Z,26.61
2022-09-01T17:10:23.502Z,26.64
2022-09-01T17:12:58.205Z,26.13
2022-09-01T17:15:39.358Z,25.58
2022-09-01T17:18:24.977Z,24.63
2022-09-01T17:20:58.095Z,23.74
2022-09-01T17:23:32.065Z,23.43
2022-09-01T17:26:05.149Z,23.17
2022-09-01T17:28:38.007Z,22.98
2022-09-01T17:31:16.009Z,22.65
2022-09-01T17:33:58.863Z,22.64
2022-09-01T17:36:25.823Z,22.42
2022-09-01T17:39:21.993Z,22.26
2022-09-01T17:42:00.454Z,22.02
2022-09-01T17:44:48.004Z,22.12
2022-09-01T17:47:44.549Z,22.05
2022-09-01T17:50:17.929Z,21.98
2022-09-01T17:53:26.521Z,21.82
2022-09-01T17:56:03.267Z,21.64
2022-09-01T17:58:45.207Z,21.75
2022-09-01T18:01:33.616Z,21.62
2022-09-01T18:04:22.050Z,21.51
2022-09-01T18:06:54.483Z,21.50
2022-09-01T18:09:25.393Z,21.30
2022-09-01T18:12:04.466Z,21.33
2022-09-01T18:14:57.281Z,21.16
2022-09-01T18:17:33.620Z,21.04
2022-09-01T18:20:27.998Z,21.05
2022-09-01T18:23:07.127Z,20.96
2022-09-01T18:25:41.656Z,20.71
2022-09-01T18:28:10.016Z,20.72
2022-09-01T18:31:06.241Z,20.71
2022-09-01T18:33:45.574Z,20.61
2022-09-01T18:36:48.276Z,20.49
2022-09-01T18:39:20.567Z,20.14
2022-09-01T18:42:12.730Z,20.32
2022-09-01T18:45:09.708Z,20.35
2022-09-01T18:47:49.013Z,20.35
2022-09-01T18:50:34.505Z,20.22
2022-09-01T18:53:26.037Z,20.17
2022-09-01T18:56:01.998Z,20.18
2022-09-01T18:58:43.415Z,20.11
2022-09-01T19:01:14.395Z,20.09
2022-09-01T19:04:14.086Z,20.06
2022-09-01T19:06:59.901Z,20.03
2022-09-01T19:09:50.908Z,19.91
2022-09-01T19:12:20.740Z,19.81
2022-09-01T19:14:56.640Z,19.77
2022-09-01T19:17:32.570Z,19.62
2022-09-01T19:20:08.802Z,19.56
2022-09-01T19:23:04.349Z,19.47
2022-09-01T19:25:34.256Z,19.38
2022-09-01T19:28:39.704Z,19.33
2022-09-01T19:31:22.794Z,19.01
2022-09-01T19:33:59.765Z,19.19
2022-09-01T19:36:40.381Z,19.11
2022-09-01T19:39:12.950Z,18.89
2022-09-01T19:41:43.562Z,19.03
2022-09-01T19:44:32.278Z,19.03
2022-09-01T19:47:13.622Z,18.88
2022-09-01T19:49:48.434Z,18.93
2022-09-01T19:52:46.037Z,19.05
2022-09-01T19:55:23.117Z,18.92
2022-09-01T19:58:00.851Z,18.97
2022-09-01T20:00:51.507Z,18.70
2022-09-01T20:03:32.953Z,18.72
2022-09-01T20:06:03.102Z,18.62
2022-09-01T20:08:35.968Z,18.53
2022-09-01T20:11:45.367Z,18.48
2022-09-01T20:14:23.577Z,18.41
2022-09-01T20:16:55.350Z,18.37
2022-09-01T20:19:50.986Z,18.38
2022-09-01T20:22:43.413Z,18.28
2022-09-01T20:25:14.715Z,18.20
2022-09-01T20:27:51.788Z,18.13
2022-09-01T20:30:26.408Z,18.13
2022-09-01T20:33:03.183Z,18.16
2022-09-01T20:35:39.927Z,18.10
2022-09-01T20:38:59.606Z,18.15
2022-09-01T20:41:45.201Z,18.17
2022-09-01T20:44:23.174Z,18.19
2022-09-01T20:46:51.936Z,18.25
2022-09-01T20:49:18.937Z,18.13
2022-09-01T20:52:02.582Z,18.04
2022-09-01T20:54:46.440Z,17.97
2022-09-01T20:57:37.508Z,17.74
2022-09-01T21:00:10.598Z,18.07
2022-09-01T21:02:56.741Z,17.73
2022-09-01T21:05:45.352Z,17.97
2022-09-01T21:08:37.239Z,17.99
2022-09-01T21:11:27.442Z,17.91
2022-09-01T21:14:16.129Z,17.92
2022-09-01T21:17:07.763Z,18.03
2022-09-01T21:19:47.892Z,17.87
2022-09-01T21:22:21.271Z,18.05
2022-09-01T21:24:50.117Z,18.04
2022-09-01T21:27:22.619Z,17.93
2022-09-01T21:29:59.847Z,17.83
2022-09-01T21:32:29.121Z,17.79
2022-09-01T21:34:56.655Z,17.76
2022-09-01T21:37:25.113Z,17.77
2022-09-01T21:39:53.840Z,17.58
2022-09-01T21:42:24.786Z,17.81
2022-09-01T21:44:54.309Z,17.77
2022-09-01T21:47:22.802Z,17.89
2022-09-01T21:49:49.957Z,17.82
2022-09-01T21:52:17.069Z,17.88
2022-09-01T21:54:44.173Z,17.42
2022-09-01T21:57:11.318Z,17.77
2022-09-01T21:59:38.346Z,17.72
2022-09-01T22:02:07.085Z,17.64
2022-09-01T22:04:36.987Z,17.74
2022-09-01T22:07:05.838Z,17.73
2022-09-01T22:09:32.889Z,17.60
2022-09-01T22:11:59.919Z,17.62
2022-09-01T22:14:27.815Z,17.58
2022-09-01T22:16:55.405Z,17.65
2022-09-01T22:19:22.436Z,17.64
2022-09-01T22:21:51.533Z,17.63
2022-09-01T22:24:19.749Z,17.61
2022-09-01T22:26:48.273Z,17.55
2022-09-01T22:29:17.333Z,17.33
2022-09-01T22:31:44.612Z,17.57
2022-09-01T22:34:11.786Z,17.38
2022-09-01T22:36:46.739Z,17.43
2022-09-01T22:39:16.022Z,17.40
2022-09-01T22:41:43.180Z,17.43
2022-09-01T22:44:11.015Z,17.50
2022-09-01T22:46:39.609Z,17.52
2022-09-01T22:49:07.934Z,17.20
2022-09-01T22:51:38.151Z,17.35
2022-09-01T22:54:06.741Z,17.32
2022-09-01T22:56:35.864Z,17.23
2022-09-01T22:59:06.832Z,17.17
2022-09-01T23:01:37.911Z,17.17
2022-09-01T23:04:07.065Z,17.14
2022-09-01T23:06:38.319Z,17.29
2022-09-01T23:09:09.116Z,17.21
2022-09-01T23:11:36.874Z,17.07
2022-09-01T23:14:04.471Z,17.06
2022-09-01T23:16:31.665Z,17.07
2022-09-01T23:18:59.383Z,17.02
2022-09-01T23:21:30.980Z,16.98
2022-09-01T23:23:59.593Z,16.87
2022-09-01T23:26:28.093Z,16.92
2022-09-01T23:28:56.869Z,16.99
2022-09-01T23:31:26.635Z,16.85
2022-09-01T23:33:53.741Z,16.91
2022-09-01T23:36:24.581Z,16.85
2022-09-01T23:38:53.139Z,16.81
2022-09-01T23:41:23.903Z,16.73
2022-09-01T23:43:52.022Z,16.52
2022-09-01T23:46:22.752Z,16.62
2022-09-01T23:48:50.157Z,16.21
2022-09-01T23:51:20.630Z,16.51
2022-09-01T23:53:48.218Z,16.47
2022-09-01T23:56:18.261Z,16.52
2022-09-01T23:58:45.605Z,16.42
